Time;durP1;ratioP1;P1;durP2;ratioP2;P2;SDS_P1;SDS_P2;PMS_P1;PMS_P2;Temp;Humidity;BMP_temperature;BMP_pressure;BME280_temperature;BME280_humidity;BME280_pressure;Samples;Min_cycle;Max_cycle;Signal;HPM_P1;HPM_P2
2023/05/17 00:00:42;;;;;;;4.97;2.45;;;20.50;73.90;;;;;;5012731;28;20045;-31
2023/05/17 00:03:09;;;;;;;3.60;2.00;;;20.80;71.50;;;;;;5012035;28;20060;-31
2023/05/17 00:05:36;;;;;;;6.55;2.30;;;20.00;60.10;;;;;;5012893;28;20133;-31
2023/05/17 00:08:03;;;;;;;5.18;2.03;;;;;;;;;;5012586;28;20476;-31
2023/05/17 00:10:30;;;;;;;3.95;2.03;;;;;;;;;;5012496;28;20470;-31
2023/05/17 00:12:56;;;;;;;4.30;1.80;;;19.60;72.70;;;;;;5012082;28;20081;-31
2023/05/17 00:15:24;;;;;;;4.00;1.98;;;;;;;;;;5012468;28;20141;-31
2023/05/17 00:17:52;;;;;;;4.28;2.10;;;19.90;71.90;;;;;;5012374;28;20136;-31
2023/05/17 00:20:18;;;;;;;4.97;2.20;;;19.60;73.00;;;;;;5012442;28;20137;-31
2023/05/17 00:22:46;;;;;;;4.57;2.30;;;20.20;73.00;;;;;;5012051;28;20137;-31
2023/05/17 00:25:12;;;;;;;4.75;2.20;;;20.00;73.70;;;;;;5012368;28;20050;-30
2023/05/17 00:27:39;;;;;;;4.97;2.03;;;21.00;73.50;;;;;;5012116;28;20132;-31
2023/05/17 00:30:07;;;;;;;3.53;1.98;;;19.30;53.40;;;;;;5012170;28;20045;-31
2023/05/17 00:32:34;;;;;;;5.18;2.20;;;;;;;;;;5011890;28;20521;-30
2023/05/17 00:35:02;;;;;;;4.57;2.05;;;20.10;56.90;;;;;;5012093;28;20509;-31
2023/05/17 00:37:29;;;;;;;5.13;2.17;;;19.90;73.80;;;;;;5011651;28;20149;-30
2023/05/17 00:39:56;;;;;;;3.45;1.85;;;20.10;73.00;;;;;;5012129;28;20141;-31
2023/05/17 00:42:22;;;;;;;4.53;2.13;;;19.70;58.90;;;;;;5011534;28;20502;-31
2023/05/17 00:44:49;;;;;;;3.95;1.80;;;19.80;73.30;;;;;;5012071;28;20049;-31
2023/05/17 00:47:16;;;;;;;3.53;2.00;;;21.00;73.60;;;;;;5012291;28;20123;-31
2023/05/17 00:49:44;;;;;;;4.28;2.45;;;;;;;;;;5011822;28;20045;-30
2023/05/17 00:52:12;;;;;;;4.25;2.05;;;19.60;60.10;;;;;;5011736;28;20054;-30
2023/05/17 00:54:39;;;;;;;5.55;2.38;;;19.80;53.80;;;;;;4994614;28;20140;-31
2023/05/17 00:57:06;;;;;;;5.78;2.20;;;19.70;73.40;;;;;;5011940;28;20060;-31
2023/05/17 00:59:33;;;;;;;4.30;1.83;;;;;;;;;;5012140;28;20137;-30
2023/05/17 01:02:00;;;;;;;5.78;2.00;;;20.00;73.20;;;;;;5011577;28;20586;-30
2023/05/17 01:04:26;;;;;;;4.10;2.15;;;19.10;72.70;;;;;;5011781;28;20050;-31
2023/05/17 01:06:53;;;;;;;4.10;1.90;;;20.40;58.50;;;;;;5011844;28;20136;-30
2023/05/17 01:09:21;;;;;;;3.85;2.03;;;18.60;72.90;;;;;;5011667;28;20056;-30
2023/05/17 01:11:52;;;;;;;5.25;1.90;;;19.70;73.60;;;;;;5011841;28;20434;-31
2023/05/17 01:14:31;;;;;;;4.95;1.70;;;19.70;53.80;;;;;;5011563;28;20066;-30
2023/05/17 01:17:01;;;;;;;4.38;1.83;;;19.30;66.20;;;;;;5015866;28;20056;-31
2023/05/17 01:20:00;;;;;;;4.80;2.17;;;18.50;62.40;;;;;;5015797;28;20141;-30
2023/05/17 01:22:31;;;;;;;4.07;1.88;;;19.60;53.90;;;;;;5011133;28;20093;-31
2023/05/17 01:25:11;;;;;;;4.65;1.90;;;19.60;73.60;;;;;;5014364;28;20046;-31
2023/05/17 01:27:41;;;;;;;4.05;1.90;;;19.50;56.90;;;;;;5014161;28;20053;-31
2023/05/17 01:30:08;;;;;;;3.65;1.85;;;19.20;73.90;;;;;;5014130;28;20056;-31
2023/05/17 01:32:35;;;;;;;4.72;2.10;;;19.20;74.00;;;;;;5014062;28;20124;-31
2023/05/17 01:35:04;;;;;;;3.10;1.90;;;19.60;53.90;;;;;;5014248;28;20068;-30
2023/05/17 01:37:30;;;;;;;5.00;2.08;;;18.80;63.30;;;;;;5013556;28;20539;-31
2023/05/17 01:39:57;;;;;;;4.25;1.80;;;20.50;74.30;;;;;;5014052;28;20140;-31
2023/05/17 01:42:28;;;;;;;4.28;1.83;;;19.50;53.90;;;;;;5013773;28;20042;-30
2023/05/17 01:45:00;;;;;;;5.57;1.80;;;19.10;59.70;;;;;;5013910;28;20054;-30
2023/05/17 01:47:30;;;;;;;4.88;2.10;;;19.70;73.30;;;;;;5013790;28;20415;-31
2023/05/17 01:49:57;;;;;;;4.50;2.25;;;19.50;73.80;;;;;;5013935;28;20447;-31
2023/05/17 01:52:27;;;;;;;5.22;1.90;;;19.70;73.50;;;;;;5013197;28;20125;-31
2023/05/17 01:54:56;;;;;;;5.18;2.20;;;19.50;56.60;;;;;;5013937;28;20137;-31
2023/05/17 01:57:25;;;;;;;4.82;1.80;;;20.00;72.60;;;;;;5013759;28;20136;-30
2023/05/17 01:59:52;;;;;;;4.28;1.92;;;19.60;74.50;;;;;;5014077;28;20050;-31
2023/05/17 02:02:21;;;;;;;6.40;2.28;;;19.30;63.20;;;;;;5013348;28;20049;-31
2023/05/17 02:04:50;;;;;;;4.50;2.03;;;;;;;;;;5013359;28;20080;-31
2023/05/17 02:07:17;;;;;;;4.55;1.80;;;;;;;;;;5013639;28;20049;-30
2023/05/17 02:09:44;;;;;;;5.68;2.00;;;;;;;;;;5013544;28;20491;-30
2023/05/17 02:12:11;;;;;;;4.80;1.90;;;;;;;;;;5013452;28;20061;-30
2023/05/17 02:14:38;;;;;;;5.13;1.80;;;19.50;73.60;;;;;;5013370;28;20042;-31
2023/05/17 02:17:05;;;;;;;5.55;2.15;;;;;;;;;;5013769;28;20441;-30
2023/05/17 02:19:33;;;;;;;4.32;1.90;;;19.10;73.30;;;;;;5013564;28;20049;-31
2023/05/17 02:22:00;;;;;;;6.43;2.10;;;;;;;;;;4976913;28;1049489;-32
2023/05/17 02:24:27;;;;;;;4.93;1.88;;;20.20;74.30;;;;;;5014565;28;20231;-31
2023/05/17 02:26:54;;;;;;;3.03;1.48;;;19.20;61.90;;;;;;5014256;28;20046;-31
2023/05/17 02:29:21;;;;;;;4.18;1.67;;;19.30;74.40;;;;;;4996519;28;20050;-31
2023/05/17 02:31:48;;;;;;;4.05;1.85;;;;;;;;;;5014608;28;20049;-30
2023/05/17 02:34:15;;;;;;;4.35;2.00;;;;;;;;;;5014011;28;20056;-31
2023/05/17 02:36:43;;;;;;;3.50;1.70;;;19.20;53.90;;;;;;5013885;28;20049;-30
2023/05/17 02:39:10;;;;;;;3.30;1.55;;;19.10;66.10;;;;;;5014336;28;20054;-30
2023/05/17 02:41:37;;;;;;;5.32;1.90;;;19.90;74.90;;;;;;5014476;28;20061;-31
2023/05/17 02:44:04;;;;;;;4.75;1.80;;;;;;;;;;5013729;28;20136;-30
2023/05/17 02:46:31;;;;;;;3.92;1.88;;;18.30;73.00;;;;;;4996343;28;20139;-31
2023/05/17 02:48:57;;;;;;;5.25;1.92;;;18.90;73.50;;;;;;4996711;28;20141;-31
2023/05/17 02:51:24;;;;;;;4.60;2.15;;;;;;;;;;5013925;28;20057;-30
2023/05/17 02:53:52;;;;;;;4.95;1.90;;;19.00;73.50;;;;;;5013837;28;20050;-31
2023/05/17 02:56:19;;;;;;;5.25;2.03;;;;;;;;;;4996605;28;20140;-31
2023/05/17 02:58:47;;;;;;;3.10;1.63;;;;;;;;;;5013947;28;20050;-30
2023/05/17 03:01:13;;;;;;;5.32;1.90;;;19.20;74.60;;;;;;5013899;28;20054;-31
2023/05/17 03:03:40;;;;;;;4.15;1.88;;;19.60;74.00;;;;;;5013291;28;20129;-31
2023/05/17 03:06:07;;;;;;;4.32;1.90;;;19.30;60.00;;;;;;5013999;28;20148;-31
2023/05/17 03:08:34;;;;;;;5.05;1.90;;;19.90;74.70;;;;;;4996073;28;20478;-31
2023/05/17 03:11:02;;;;;;;5.22;1.70;;;19.10;72.80;;;;;;5013454;28;20115;-31
2023/05/17 03:13:29;;;;;;;5.10;2.00;;;18.80;61.40;;;;;;5013417;28;20077;-31
2023/05/17 03:15:56;;;;;;;4.97;1.70;;;18.80;73.50;;;;;;5013642;28;20130;-31
2023/05/17 03:18:22;;;;;;;5.30;1.80;;;19.90;74.20;;;;;;5013373;28;20049;-31
2023/05/17 03:20:50;;;;;;;4.50;1.90;;;;;;;;;;5013460;28;20137;-31
2023/05/17 03:23:16;;;;;;;4.13;1.80;;;19.70;74.60;;;;;;5013045;28;20050;-31
2023/05/17 03:25:43;;;;;;;3.97;1.67;;;;;;;;;;5013356;28;20053;-30
2023/05/17 03:28:11;;;;;;;4.03;1.67;;;19.70;74.40;;;;;;5013619;28;20060;-31
2023/05/17 03:30:38;;;;;;;3.88;1.70;;;19.30;73.90;;;;;;5013078;28;20054;-31
2023/05/17 03:33:05;;;;;;;5.00;1.65;;;;;;;;;;5012864;28;20052;-31
2023/05/17 03:35:32;;;;;;;4.18;1.70;;;18.50;68.20;;;;;;5013394;28;20136;-30
2023/05/17 03:37:59;;;;;;;4.28;1.75;;;18.90;73.60;;;;;;5012122;28;20050;-31
2023/05/17 03:40:26;;;;;;;3.75;1.63;;;;;;;;;;5013017;28;20057;-30
2023/05/17 03:42:53;;;;;;;4.75;2.08;;;19.40;74.00;;;;;;5012642;28;20041;-31
2023/05/17 03:45:21;;;;;;;3.33;1.63;;;19.20;73.90;;;;;;5013210;28;20128;-31
2023/05/17 03:47:47;;;;;;;4.18;1.92;;;19.80;74.70;;;;;;5012969;28;20125;-31
2023/05/17 03:50:14;;;;;;;4.28;1.80;;;19.00;62.70;;;;;;5012862;28;20056;-30
2023/05/17 03:52:41;;;;;;;3.28;1.58;;;19.20;74.70;;;;;;5012629;28;20053;-31
2023/05/17 03:55:09;;;;;;;4.07;1.58;;;18.80;74.00;;;;;;5012848;28;20647;-31
2023/05/17 03:57:35;;;;;;;3.75;1.70;;;19.30;74.00;;;;;;5012798;28;20056;-31
2023/05/17 04:00:05;;;;;;;3.63;1.48;;;;;;;;;;5012952;28;20045;-30
2023/05/17 04:02:33;;;;;;;4.20;1.80;;;18.90;54.00;;;;;;5012131;28;20172;-30
2023/05/17 04:05:00;;;;;;;3.83;1.60;;;;;;;;;;5012527;28;20157;-31
2023/05/17 04:07:27;;;;;;;4.07;1.70;;;18.20;74.20;;;;;;5012868;28;20138;-31
2023/05/17 04:09:57;;;;;;;3.47;1.58;;;18.70;73.70;;;;;;5012674;28;20076;-31
2023/05/17 04:12:24;;;;;;;4.07;1.40;;;18.90;74.10;;;;;;5012147;28;20084;-31
2023/05/17 04:14:51;;;;;;;4.72;1.42;;;;;;;;;;5012275;28;20124;-31
2023/05/17 04:17:18;;;;;;;3.25;1.60;;;19.20;73.90;;;;;;5012680;28;20136;-31
2023/05/17 04:19:46;;;;;;;3.00;1.40;;;18.80;61.90;;;;;;5012572;28;20129;-31
2023/05/17 04:22:13;;;;;;;3.90;1.50;;;;;;;;;;5011960;28;20137;-31
2023/05/17 04:24:40;;;;;;;3.75;1.40;;;19.10;73.70;;;;;;5011986;28;20060;-31
2023/05/17 04:27:06;;;;;;;2.95;1.40;;;19.70;69.00;;;;;;5012443;28;20514;-31
2023/05/17 04:29:33;;;;;;;2.92;1.27;;;;;;;;;;5011961;28;20049;-31
2023/05/17 04:32:00;;;;;;;2.97;1.40;;;18.40;73.50;;;;;;5012470;28;20129;-31
2023/05/17 04:34:27;;;;;;;2.90;1.40;;;;;;;;;;5011940;28;20121;-31
2023/05/17 04:36:55;;;;;;;3.10;1.40;;;17.60;73.30;;;;;;5011709;28;20150;-31
2023/05/17 04:39:22;;;;;;;3.28;1.50;;;;;;;;;;5012262;28;20618;-31
2023/05/17 04:41:49;;;;;;;3.08;1.30;;;18.90;73.60;;;;;;5012173;28;20619;-31
2023/05/17 04:44:16;;;;;;;2.63;1.50;;;19.90;68.90;;;;;;5011640;28;20100;-31
2023/05/17 04:46:43;;;;;;;4.45;1.50;;;19.20;73.90;;;;;;5012007;28;20498;-31
2023/05/17 04:49:10;;;;;;;2.67;1.20;;;;;;;;;;5012072;28;20142;-30
2023/05/17 04:51:37;;;;;;;3.80;1.60;;;18.90;73.70;;;;;;5011904;28;20129;-31
2023/05/17 04:54:07;;;;;;;4.78;1.40;;;19.10;73.70;;;;;;5011483;28;20137;-31
2023/05/17 04:56:34;;;;;;;3.67;1.35;;;18.80;54.00;;;;;;5011798;28;20527;-30
2023/05/17 04:59:01;;;;;;;2.88;1.35;;;20.00;74.20;;;;;;5011958;28;20046;-31
2023/05/17 05:01:29;;;;;;;3.38;1.45;;;19.40;73.90;;;;;;5011966;28;20057;-31
2023/05/17 05:03:56;;;;;;;3.00;1.30;;;;;;;;;;5011500;28;20060;-30
2023/05/17 05:06:23;;;;;;;4.40;1.50;;;18.10;74.00;;;;;;5011881;28;20050;-31
2023/05/17 05:08:50;;;;;;;2.80;1.50;;;19.00;74.00;;;;;;5011802;28;20157;-31
2023/05/17 05:11:18;;;;;;;2.20;1.20;;;19.50;57.50;;;;;;5011817;28;20089;-31
2023/05/17 05:13:45;;;;;;;2.63;1.25;;;;;;;;;;5011646;28;20053;-31
2023/05/17 05:16:12;;;;;;;3.83;1.52;;;;;;;;;;5011672;28;20128;-31
2023/05/17 05:18:39;;;;;;;3.65;1.45;;;;;;;;;;5011509;28;20121;-31
2023/05/17 05:21:06;;;;;;;2.60;1.20;;;19.70;74.00;;;;;;5011713;28;20052;-31
2023/05/17 05:23:33;;;;;;;3.58;1.30;;;;;;;;;;5011079;28;20050;-31
2023/05/17 05:26:00;;;;;;;2.40;1.15;;;18.40;73.20;;;;;;5011938;28;20140;-31
2023/05/17 05:28:28;;;;;;;2.65;1.33;;;18.70;54.00;;;;;;5011729;28;20135;-31
2023/05/17 05:30:58;;;;;;;3.28;1.25;;;18.70;54.00;;;;;;5011652;28;20060;-29
2023/05/17 05:33:25;;;;;;;3.95;1.40;;;17.50;73.20;;;;;;5006590;28;20047;-31
2023/05/17 05:35:52;;;;;;;3.30;1.30;;;;;;;;;;5003091;28;20121;-30
2023/05/17 05:38:19;;;;;;;2.33;1.13;;;19.10;73.60;;;;;;5003288;28;20129;-31
2023/05/17 05:40:46;;;;;;;3.22;1.30;;;21.20;55.40;;;;;;5001030;28;20080;-30
2023/05/17 05:43:13;;;;;;;3.28;1.40;;;;;;;;;;5000512;28;20065;-30
2023/05/17 05:45:44;;;;;;;2.88;1.10;;;18.60;53.90;;;;;;5000405;28;20050;-31
2023/05/17 05:48:11;;;;;;;3.10;1.20;;;18.40;73.30;;;;;;5011850;28;20050;-31
2023/05/17 05:50:38;;;;;;;2.22;1.10;;;18.60;73.80;;;;;;5011385;28;20133;-31
2023/05/17 05:53:05;;;;;;;4.28;1.30;;;19.20;74.20;;;;;;5010810;28;20045;-31
2023/05/17 05:55:32;;;;;;;5.03;1.33;;;;;;;;;;5011381;28;20050;-30
2023/05/17 05:57:59;;;;;;;4.05;1.40;;;18.70;73.50;;;;;;5011664;28;20513;-31
2023/05/17 06:00:25;;;;;;;3.47;1.30;;;18.40;62.50;;;;;;5011542;28;20054;-31
2023/05/17 06:02:56;;;;;;;2.30;1.33;;;18.10;60.70;;;;;;5014269;28;20057;-31
2023/05/17 06:05:22;;;;;;;3.28;1.42;;;18.70;72.80;;;;;;5015128;28;20050;-31
2023/05/17 06:07:49;;;;;;;3.65;1.33;;;18.40;73.30;;;;;;5015100;28;20132;-31
2023/05/17 06:10:16;;;;;;;2.58;1.20;;;;;;;;;;5015167;28;20050;-30
2023/05/17 06:12:43;;;;;;;2.72;1.30;;;19.80;74.00;;;;;;5014605;28;20050;-31
2023/05/17 06:15:11;;;;;;;4.47;1.23;;;18.60;73.50;;;;;;5014907;28;20077;-31
2023/05/17 06:17:37;;;;;;;3.67;1.20;;;18.70;66.90;;;;;;5014794;28;20057;-31
2023/05/17 06:20:06;;;;;;;3.10;1.40;;;18.40;59.70;;;;;;5015019;28;20149;-31
2023/05/17 06:22:33;;;;;;;3.58;1.23;;;18.20;73.00;;;;;;5014520;28;20480;-31
2023/05/17 06:25:00;;;;;;;3.58;1.40;;;18.80;73.50;;;;;;5014951;28;20133;-31
2023/05/17 06:27:27;;;;;;;3.45;1.27;;;18.10;59.50;;;;;;4997116;28;20132;-31
2023/05/17 06:29:53;;;;;;;3.70;1.48;;;18.80;56.80;;;;;;5014769;28;20137;-31
2023/05/17 06:32:20;;;;;;;3.58;1.15;;;18.40;73.60;;;;;;5013696;28;20430;-31
2023/05/17 06:34:47;;;;;;;2.35;1.13;;;;;;;;;;5014357;28;20117;-31
2023/05/17 06:37:16;;;;;;;5.15;1.50;;;17.60;73.10;;;;;;5014067;28;20060;-30
2023/05/17 06:39:42;;;;;;;3.65;1.38;;;18.50;73.60;;;;;;5014722;28;20052;-31
2023/05/17 06:42:09;;;;;;;1.83;1.00;;;;;;;;;;5014231;28;20248;-30
2023/05/17 06:44:36;;;;;;;3.17;1.20;;;18.70;73.70;;;;;;4993534;28;20057;-31
2023/05/17 06:47:03;;;;;;;3.95;1.60;;;18.00;54.50;;;;;;5005116;28;20137;-31
2023/05/17 06:49:30;;;;;;;3.50;1.20;;;17.50;64.00;;;;;;5003462;28;20054;-31
2023/05/17 06:52:01;;;;;;;3.13;1.40;;;18.70;73.20;;;;;;5005882;28;20046;-31
2023/05/17 06:54:30;;;;;;;3.20;1.35;;;19.00;73.30;;;;;;5002591;28;20049;-31
2023/05/17 06:56:59;;;;;;;3.15;1.08;;;19.50;73.60;;;;;;5003426;28;20053;-31
2023/05/17 06:59:26;;;;;;;3.53;1.10;;;18.40;73.30;;;;;;5003317;28;20049;-31
2023/05/17 07:01:53;;;;;;;3.65;1.40;;;19.50;73.90;;;;;;5005610;28;20073;-31
2023/05/17 07:04:20;;;;;;;4.78;1.60;;;;;;;;;;5005171;28;20050;-30
2023/05/17 07:06:47;;;;;;;2.47;1.20;;;18.30;73.40;;;;;;5003317;28;20050;-31
2023/05/17 07:09:13;;;;;;;3.17;1.60;;;19.70;60.90;;;;;;5004579;28;20045;-31
2023/05/17 07:11:41;;;;;;;2.85;1.20;;;18.30;57.50;;;;;;5003510;28;20046;-31
2023/05/17 07:14:08;;;;;;;3.17;1.55;;;;;;;;;;5002937;28;20066;-31
2023/05/17 07:16:35;;;;;;;2.92;1.17;;;18.50;73.50;;;;;;5002905;28;20054;-31
2023/05/17 07:19:02;;;;;;;2.78;1.00;;;18.80;73.60;;;;;;5003627;28;20507;-31
2023/05/17 07:21:29;;;;;;;2.78;1.30;;;;;;;;;;5004538;28;20125;-31
2023/05/17 07:23:57;;;;;;;2.50;1.30;;;;;;;;;;5004918;28;20053;-30
2023/05/17 07:26:23;;;;;;;3.08;1.08;;;19.10;73.00;;;;;;5003657;28;20042;-31
2023/05/17 07:28:51;;;;;;;2.75;1.40;;;19.30;59.90;;;;;;5004371;28;20076;-31
2023/05/17 07:31:18;;;;;;;2.03;1.05;;;19.00;62.70;;;;;;5004685;28;20049;-31
2023/05/17 07:33:45;;;;;;;3.72;1.30;;;;;;;;;;5003426;28;20129;-30
2023/05/17 07:36:12;;;;;;;4.00;1.38;;;19.40;73.50;;;;;;5001597;28;20555;-31
2023/05/17 07:38:38;;;;;;;4.07;1.17;;;20.60;73.20;;;;;;5005318;28;20042;-31
2023/05/17 07:41:08;;;;;;;4.57;1.30;;;19.80;62.10;;;;;;5004829;28;20064;-31
2023/05/17 07:43:35;;;;;;;4.20;1.10;;;20.10;72.30;;;;;;5003593;28;20642;-30
2023/05/17 07:46:03;;;;;;;1.70;1.00;;;19.90;53.00;;;;;;4993567;28;20429;-31
2023/05/17 07:48:30;;;;;;;4.20;1.35;;;20.00;59.50;;;;;;5004191;28;20132;-31
2023/05/17 07:50:57;;;;;;;3.60;1.48;;;;;;;;;;5003439;28;20046;-31
2023/05/17 07:53:24;;;;;;;3.03;1.25;;;19.80;71.70;;;;;;5002392;28;20129;-30
2023/05/17 07:55:51;;;;;;;3.55;1.25;;;20.00;71.60;;;;;;5003679;28;20406;-30
2023/05/17 07:58:18;;;;;;;2.80;1.40;;;;;;;;;;5002144;28;20514;-30
2023/05/17 08:00:44;;;;;;;2.65;1.20;;;20.00;57.70;;;;;;5003705;28;20452;-31
2023/05/17 08:03:12;;;;;;;2.95;1.27;;;21.50;71.80;;;;;;5004058;28;20082;-31
2023/05/17 08:05:40;;;;;;;3.35;1.17;;;;;;;;;;5002282;28;20046;-31
2023/05/17 08:08:07;;;;;;;2.72;1.20;;;;;;;;;;5003096;28;20054;-31
2023/05/17 08:10:35;;;;;;;2.72;1.00;;;20.50;71.70;;;;;;5006780;28;20077;-31
2023/05/17 08:13:02;;;;;;;3.25;1.10;;;20.20;70.50;;;;;;5012010;28;20057;-31
2023/05/17 08:15:29;;;;;;;2.53;1.20;;;20.50;70.40;;;;;;5011820;28;20041;-30
2023/05/17 08:17:56;;;;;;;1.80;1.30;;;;;;;;;;5011217;28;20067;-30
2023/05/17 08:20:24;;;;;;;2.55;1.05;;;20.40;70.20;;;;;;5011444;28;20129;-31
2023/05/17 08:22:51;;;;;;;2.45;1.17;;;21.10;70.80;;;;;;5011352;28;20139;-31
2023/05/17 08:25:19;;;;;;;3.78;1.20;;;20.60;70.10;;;;;;5009405;28;20052;-31
2023/05/17 08:27:45;;;;;;;4.43;1.20;;;21.30;57.10;;;;;;5012102;28;20125;-31
2023/05/17 08:30:13;;;;;;;3.35;1.33;;;;;;;;;;5011446;28;20128;-30
2023/05/17 08:32:39;;;;;;;3.08;1.13;;;21.70;70.40;;;;;;5011422;28;20479;-31
2023/05/17 08:35:07;;;;;;;6.00;1.30;;;20.20;65.60;;;;;;5011369;28;20638;-31
2023/05/17 08:37:35;;;;;;;3.20;1.40;;;21.00;69.70;;;;;;5010623;28;20410;-31
2023/05/17 08:40:01;;;;;;;2.53;1.40;;;21.70;70.40;;;;;;5011691;28;20053;-31
2023/05/17 08:42:28;;;;;;;4.05;1.40;;;20.70;69.40;;;;;;5011560;28;20042;-31
2023/05/17 08:44:55;;;;;;;2.63;1.30;;;21.10;51.90;;;;;;5011265;28;20115;-30
2023/05/17 08:47:28;;;;;;;3.50;1.00;;;21.30;70.30;;;;;;5011824;28;20444;-30
2023/05/17 08:49:56;;;;;;;4.78;1.20;;;21.60;70.50;;;;;;5011409;28;20652;-31
2023/05/17 08:52:23;;;;;;;3.40;1.38;;;;;;;;;;5011176;28;20041;-31
2023/05/17 08:54:51;;;;;;;2.90;1.60;;;22.10;69.60;;;;;;5011801;28;20042;-31
2023/05/17 08:57:19;;;;;;;3.95;1.40;;;21.40;69.40;;;;;;5009119;28;20052;-32
2023/05/17 08:59:46;;;;;;;2.80;1.20;;;;;;;;;;5011764;28;20056;-31
2023/05/17 09:02:13;;;;;;;3.45;1.30;;;21.60;50.90;;;;;;5011245;28;20569;-31
2023/05/17 09:04:40;;;;;;;3.13;1.30;;;20.70;62.30;;;;;;5011026;28;20046;-32
2023/05/17 09:07:07;;;;;;;2.15;1.05;;;;;;;;;;5011309;28;20061;-32
2023/05/17 09:09:34;;;;;;;2.25;1.10;;;21.90;58.00;;;;;;5011266;28;20042;-32
2023/05/17 09:12:03;;;;;;;4.20;1.20;;;22.20;69.00;;;;;;5010449;28;20410;-32
2023/05/17 09:14:32;;;;;;;2.97;1.45;;;21.80;69.30;;;;;;5010805;28;20084;-32
2023/05/17 09:17:00;;;;;;;3.17;1.40;;;21.70;69.60;;;;;;5007901;28;20064;-32
2023/05/17 09:19:27;;;;;;;2.78;1.35;;;21.80;68.80;;;;;;5011657;28;20056;-32
2023/05/17 09:21:54;;;;;;;2.28;1.10;;;21.80;51.30;;;;;;5011640;28;20068;-31
2023/05/17 09:24:27;;;;;;;3.13;1.30;;;21.90;50.60;;;;;;5011292;28;20070;-32
2023/05/17 09:26:54;;;;;;;2.90;1.40;;;21.80;68.90;;;;;;5011161;28;20048;-32
2023/05/17 09:29:22;;;;;;;3.60;1.58;;;21.30;51.90;;;;;;5011502;28;20074;-31
2023/05/17 09:31:49;;;;;;;2.40;1.23;;;;;;;;;;5011331;28;20125;-31
2023/05/17 09:34:18;;;;;;;2.65;1.65;;;21.50;68.80;;;;;;5011637;28;20050;-32
2023/05/17 09:36:45;;;;;;;3.38;1.27;;;22.20;66.10;;;;;;5013028;28;20121;-32
2023/05/17 09:39:13;;;;;;;3.05;1.30;;;21.20;61.50;;;;;;5015629;28;20490;-32
2023/05/17 09:41:45;;;;;;;2.42;1.08;;;21.70;68.50;;;;;;5015552;28;20046;-32
2023/05/17 09:44:12;;;;;;;2.97;1.30;;;21.50;68.40;;;;;;5015221;28;20084;-32
2023/05/17 09:46:41;;;;;;;2.92;1.30;;;21.90;50.50;;;;;;5015415;28;20082;-31
2023/05/17 09:49:08;;;;;;;5.10;1.30;;;22.20;69.60;;;;;;5013694;28;20574;-32
2023/05/17 09:51:35;;;;;;;2.35;1.05;;;;;;;;;;5015415;28;20415;-31
2023/05/17 09:54:02;;;;;;;3.15;1.20;;;22.00;69.10;;;;;;5013380;28;20085;-32
2023/05/17 09:56:29;;;;;;;3.38;1.40;;;21.50;69.30;;;;;;5008235;28;20077;-32
2023/05/17 09:58:56;;;;;;;2.67;1.27;;;21.50;69.20;;;;;;4997091;28;20113;-32
2023/05/17 10:01:24;;;;;;;3.83;1.27;;;22.00;68.70;;;;;;5001070;28;20061;-32
2023/05/17 10:03:52;;;;;;;2.55;1.30;;;22.30;69.00;;;;;;5015197;28;20131;-32
2023/05/17 10:06:19;;;;;;;3.35;1.20;;;21.60;68.60;;;;;;5014073;28;20121;-32
2023/05/17 10:08:47;;;;;;;4.10;1.55;;;22.30;69.90;;;;;;5014672;28;20054;-31
2023/05/17 10:11:14;;;;;;;2.72;0.98;;;21.20;57.10;;;;;;5014431;28;20054;-31
2023/05/17 10:13:44;;;;;;;3.50;1.30;;;21.50;69.00;;;;;;5010748;28;20042;-32
2023/05/17 10:16:11;;;;;;;2.97;1.52;;;21.70;69.60;;;;;;5014695;28;20133;-32
2023/05/17 10:18:39;;;;;;;3.42;1.20;;;;;;;;;;5011913;28;20058;-32
2023/05/17 10:21:07;;;;;;;2.28;1.10;;;21.50;63.90;;;;;;5014194;28;20054;-32
2023/05/17 10:23:34;;;;;;;2.75;1.30;;;22.10;60.70;;;;;;5010629;28;20531;-32
2023/05/17 10:26:01;;;;;;;2.63;1.27;;;21.60;50.90;;;;;;5013620;28;20128;-32
2023/05/17 10:28:28;;;;;;;2.78;1.30;;;;;;;;;;5014123;28;20459;-31
2023/05/17 10:30:55;;;;;;;2.92;1.20;;;21.50;69.00;;;;;;5014420;28;20124;-32
2023/05/17 10:33:22;;;;;;;2.63;1.13;;;;;;;;;;5013797;28;20046;-32
2023/05/17 10:35:49;;;;;;;3.72;1.25;;;21.10;69.50;;;;;;5013739;28;20534;-32
2023/05/17 10:38:17;;;;;;;4.90;1.70;;;21.50;50.90;;;;;;4993810;28;20132;-32
2023/05/17 10:40:44;;;;;;;2.90;1.33;;;21.80;69.50;;;;;;5010458;28;20088;-32
2023/05/17 10:43:11;;;;;;;2.97;1.17;;;21.20;65.40;;;;;;5013539;28;20140;-32
2023/05/17 10:45:38;;;;;;;3.38;1.15;;;21.40;69.70;;;;;;5013962;28;20046;-32
2023/05/17 10:48:05;;;;;;;3.00;1.17;;;21.70;66.80;;;;;;5008410;28;20125;-32
2023/05/17 10:50:32;;;;;;;2.28;1.10;;;21.60;69.30;;;;;;5005892;28;20046;-32
2023/05/17 10:52:59;;;;;;;4.22;1.30;;;;;;;;;;4996128;28;20474;-31
2023/05/17 10:55:36;;;;;;;2.72;1.20;;;21.40;69.40;;;;;;5014191;28;20499;-32
2023/05/17 10:58:15;;;;;;;3.38;1.10;;;21.20;51.10;;;;;;5012776;28;20440;-32
2023/05/17 11:00:42;;;;;;;2.92;1.00;;;20.90;69.60;;;;;;5013640;28;20411;-32
2023/05/17 11:03:14;;;;;;;3.03;1.17;;;21.20;51.20;;;;;;5013123;28;20052;-30
2023/05/17 11:05:41;;;;;;;2.80;1.10;;;21.40;56.70;;;;;;5013776;28;20050;-32
2023/05/17 11:08:18;;;;;;;3.75;1.67;;;20.60;55.20;;;;;;5012274;28;20518;-31
2023/05/17 11:11:11;;;;;;;2.65;1.27;;;22.00;70.00;;;;;;5012481;28;20129;-32
2023/05/17 11:13:51;;;;;;;3.75;1.33;;;21.00;50.90;;;;;;5012884;28;20045;-31
2023/05/17 11:16:18;;;;;;;3.25;1.20;;;;;;;;;;5013251;28;20045;-31
2023/05/17 11:18:48;;;;;;;2.55;1.25;;;21.00;50.90;;;;;;5012474;28;20068;-30
2023/05/17 11:21:15;;;;;;;4.55;1.50;;;21.70;70.00;;;;;;5012313;28;20050;-32
2023/05/17 11:23:43;;;;;;;2.70;1.17;;;19.90;69.10;;;;;;5011602;28;20046;-32
2023/05/17 11:26:19;;;;;;;2.42;1.00;;;21.00;51.20;;;;;;5013747;28;20060;-30
2023/05/17 11:28:46;;;;;;;4.93;1.20;;;20.90;69.80;;;;;;5012988;28;20132;-32
2023/05/17 11:31:12;;;;;;;3.70;1.20;;;21.20;62.00;;;;;;5013289;28;20149;-32
2023/05/17 11:33:42;;;;;;;4.32;1.40;;;20.40;69.00;;;;;;4995504;28;20060;-32
2023/05/17 11:36:15;;;;;;;7.57;1.58;;;21.00;51.30;;;;;;5012801;28;20121;-31
2023/05/17 11:38:42;;;;;;;6.07;1.10;;;;;;;;;;5013045;28;20133;-31
2023/05/17 11:41:20;;;;;;;3.47;1.40;;;22.00;70.10;;;;;;5008118;28;20049;-31
2023/05/17 11:43:48;;;;;;;3.20;1.38;;;20.90;69.50;;;;;;5009827;28;20547;-31
2023/05/17 11:46:21;;;;;;;5.00;2.00;;;21.00;51.40;;;;;;5012893;28;20050;-31
2023/05/17 11:48:50;;;;;;;3.97;1.40;;;21.90;65.10;;;;;;5011820;28;20041;-32
2023/05/17 11:51:18;;;;;;;3.83;1.63;;;;;;;;;;5012964;28;20049;-32
2023/05/17 11:53:46;;;;;;;4.93;1.48;;;19.20;50.70;;;;;;5012003;28;20049;-31
2023/05/17 11:56:13;;;;;;;3.45;1.30;;;20.90;70.40;;;;;;5012354;28;20104;-32
2023/05/17 11:58:41;;;;;;;4.63;1.75;;;21.40;70.10;;;;;;5011793;28;20516;-32
2023/05/17 12:01:08;;;;;;;2.65;1.17;;;21.30;70.10;;;;;;5012579;28;20050;-32
2023/05/17 12:03:35;;;;;;;4.47;1.30;;;21.70;64.10;;;;;;5012006;28;20117;-32
2023/05/17 12:06:02;;;;;;;5.20;1.50;;;20.50;59.50;;;;;;5012308;28;20058;-32
2023/05/17 12:08:29;;;;;;;4.13;1.42;;;;;;;;;;5012029;28;20050;-31
2023/05/17 12:10:56;;;;;;;2.97;1.33;;;;;;;;;;5012615;28;20045;-32
2023/05/17 12:13:23;;;;;;;3.15;1.38;;;;;;;;;;5012061;28;20073;-32
2023/05/17 12:15:54;;;;;;;2.55;1.30;;;20.70;70.90;;;;;;5009790;28;20050;-32
2023/05/17 12:18:21;;;;;;;3.13;1.38;;;20.40;57.40;;;;;;5011962;28;20045;-32
2023/05/17 12:20:57;;;;;;;3.47;1.20;;;21.20;51.90;;;;;;5011698;28;20125;-32
2023/05/17 12:23:29;;;;;;;2.85;1.10;;;21.20;59.20;;;;;;5011440;28;20053;-32
2023/05/17 12:26:03;;;;;;;4.30;1.60;;;20.30;69.60;;;;;;5012564;28;20568;-32
2023/05/17 12:28:30;;;;;;;3.58;1.50;;;;;;;;;;5012251;28;20120;-31
2023/05/17 12:31:01;;;;;;;3.47;1.30;;;21.60;70.60;;;;;;5012351;28;20046;-32
2023/05/17 12:33:28;;;;;;;5.15;1.30;;;;;;;;;;4994476;28;20054;-31
2023/05/17 12:35:55;;;;;;;2.97;1.30;;;19.80;69.20;;;;;;4993260;28;20133;-32
2023/05/17 12:38:21;;;;;;;3.22;1.35;;;20.50;70.30;;;;;;5011592;28;20104;-32
2023/05/17 12:40:48;;;;;;;3.95;1.33;;;20.10;55.20;;;;;;5008235;28;20133;-31
2023/05/17 12:43:15;;;;;;;3.63;1.50;;;20.40;69.50;;;;;;5011715;28;20050;-32
2023/05/17 12:45:42;;;;;;;3.20;1.20;;;19.60;69.00;;;;;;5012500;28;20052;-32
2023/05/17 12:48:10;;;;;;;3.30;1.30;;;21.80;51.80;;;;;;5012327;28;20056;-32
2023/05/17 12:50:38;;;;;;;3.60;1.20;;;;;;;;;;5012377;28;20077;-32
2023/05/17 12:53:08;;;;;;;5.13;1.83;;;20.40;51.00;;;;;;5011674;28;20380;-31
2023/05/17 12:55:36;;;;;;;2.10;1.20;;;20.40;51.00;;;;;;5011940;28;20052;-31
2023/05/17 12:58:03;;;;;;;3.72;1.50;;;20.30;53.40;;;;;;5012090;28;20073;-31
2023/05/17 13:00:30;;;;;;;4.03;1.20;;;20.40;69.90;;;;;;5011947;28;20061;-32
2023/05/17 13:02:56;;;;;;;3.92;1.80;;;20.60;70.00;;;;;;5011697;28;20708;-32
2023/05/17 13:05:25;;;;;;;3.15;1.20;;;20.40;51.00;;;;;;5011848;28;20053;-32
2023/05/17 13:07:51;;;;;;;5.13;1.60;;;20.40;67.50;;;;;;5010676;28;20060;-32
2023/05/17 13:10:22;;;;;;;2.88;1.25;;;21.30;51.40;;;;;;5012159;28;20132;-31
2023/05/17 13:12:56;;;;;;;3.22;1.30;;;20.40;50.80;;;;;;5014651;28;20053;-31